< Cyclone 201313 2013 Season Cyclone 201317 >
Cyclone 201314 (Tim)
General InformationTrack Information on Google MapsDetailed Wind InformationList of All Images || ResourceGoogle EarthGE AnimationAtom FeedGeoJSON
Detalied Best Track (Time Zone = UTC)
Year Month Day Hour Lat. Long. Pressure (hPa) Wind (kt) Class Image Chart
2013 3 12 12 -11.6 140.2 998 20 2 Image --
2013 3 12 18 -11.3 141.2 995 20 2 Image --
2013 3 13 00 -11.4 143.4 995 25 2 Image --
2013 3 13 06 -11.8 144.4 995 25 2 Image --
2013 3 13 12 -12.0 146.2 994 25 2 Image --
2013 3 13 18 -13.4 147.2 994 30 2 Image --
2013 3 13 21 -13.8 147.9 993 35 3 Image --
2013 3 14 00 -14.2 148.6 992 45 3 Image --
2013 3 14 03 -14.6 149.2 987 50 4 Image --
2013 3 14 06 -14.9 149.8 985 50 4 Image --
2013 3 14 12 -15.1 151.3 991 50 4 Image --
2013 3 14 18 -15.3 152.3 990 50 4 Image --
2013 3 15 00 -15.6 153.3 992 50 4 Image --
2013 3 15 06 -16.0 153.9 993 45 3 Image --
2013 3 15 12 -16.3 154.1 999 40 3 Image --
2013 3 15 18 -16.7 154.1 997 40 3 Image --
2013 3 16 00 -16.9 154.0 998 35 3 Image --
2013 3 16 06 -17.2 153.9 997 40 3 Image --
2013 3 16 12 -17.6 153.7 998 40 3 Image --
2013 3 16 18 -18.1 153.5 997 40 3 Image --
2013 3 17 00 -18.5 153.3 997 35 3 Image --
2013 3 17 06 -18.7 153.0 998 30 2 Image --
2013 3 18 06 -19.2 151.9 998 25 2 Image --
2013 3 19 06 -19.5 150.5 998 20 2 Image --
2013 3 20 06 -18.1 148.0 998 20 2 Image --
< Cyclone 201313 2013 Season Cyclone 201317 >

Help